الصفحة الرئيسية
METAR-TAF:

METAR-TAF

مطار :

Greeley-Weld County Airport

Greeley, كولورادو, الولايات المتحدة

دائرة عرض: 40-26N, خط طول: 104-38W, ارتفاع: 1420 متر

مراقبة الطقس الحالي

تاريخ ووقت الإصدار 48 دقيقة قبل الساعة 01:56UTC
ريح 10 عقدة من الشرق
درجة الحرارة 16°درجة مئوية
الرطوبة 39%
ضغط 1023 hPa
الرؤية: 16.1 كم
ملبد بالغيوم على ارتفاع 11000 قدم

METAR: KGXY 230156Z AUTO 09010KT 10SM OVC110 16/02 A3020 RMK AO2 SLP228 T01560022

زمن: 20:44 (02:44 UTC)


TAF: مفقودة

أرصاد الطقس والتوقعات من أكثر من 4000 مطار (تقارير الطقس للمطار METAR والتنبؤ بالطقس بالمطارTAF).

المحطات المتاحة هي النقط الصفراء والحمراء على الخريطة.

حرك المؤشر فوق النقطة لمعرفة اسم المحطة.

ثم انقر لمعرفة أرصاد وتوقعات الطقس.

لتغيير الخارطة: اضغط على الأزرار الخضراء مع رمز الصليب الأسود للتكبير. على الزر الأخضر مع شرطة للتصغير، أو على الأسهم الخضراء للخرائط المجاورة.


METAR-TAF: